sensor_id;sensor_type;location;lat;lon;timestamp;pressure;altitude;pressure_sealevel;temperature;humidity
32747;BME280;19118;50.860;13.662;2022-10-19T00:00:10;98028.97;;;10.57;100.00
32747;BME280;19118;50.860;13.662;2022-10-19T00:05:11;98041.19;;;10.66;100.00
32747;BME280;19118;50.860;13.662;2022-10-19T00:10:11;98045.78;;;10.72;100.00
32747;BME280;19118;50.860;13.662;2022-10-19T00:15:11;98045.09;;;10.78;100.00
32747;BME280;19118;50.860;13.662;2022-10-19T00:20:12;98044.28;;;10.78;100.00
32747;BME280;19118;50.860;13.662;2022-10-19T00:25:12;98045.56;;;10.82;100.00
32747;BME280;19118;50.860;13.662;2022-10-19T00:30:13;98044.44;;;10.76;100.00
32747;BME280;19118;50.860;13.662;2022-10-19T00:35:13;98039.19;;;10.68;100.00
32747;BME280;19118;50.860;13.662;2022-10-19T00:40:13;98033.47;;;10.48;100.00
32747;BME280;19118;50.860;13.662;2022-10-19T00:45:16;98032.66;;;10.48;100.00
32747;BME280;19118;50.860;13.662;2022-10-19T00:50:17;98029.72;;;10.43;100.00
32747;BME280;19118;50.860;13.662;2022-10-19T00:55:17;98040.84;;;10.22;100.00
32747;BME280;19118;50.860;13.662;2022-10-19T01:00:18;98045.94;;;10.07;100.00
32747;BME280;19118;50.860;13.662;2022-10-19T01:05:18;98045.34;;;9.97;100.00
32747;BME280;19118;50.860;13.662;2022-10-19T01:10:26;98041.03;;;9.80;100.00
32747;BME280;19118;50.860;13.662;2022-10-19T01:15:37;98027.53;;;9.67;100.00
32747;BME280;19118;50.860;13.662;2022-10-19T01:21:02;98025.22;;;9.47;100.00
32747;BME280;19118;50.860;13.662;2022-10-19T01:31:45;98005.03;;;8.89;100.00
32747;BME280;19118;50.860;13.662;2022-10-19T01:42:14;97994.06;;;8.60;100.00
32747;BME280;19118;50.860;13.662;2022-10-19T01:47:30;98009.34;;;8.40;100.00
32747;BME280;19118;50.860;13.662;2022-10-19T01:52:33;98011.16;;;8.39;100.00
32747;BME280;19118;50.860;13.662;2022-10-19T01:57:39;98004.94;;;8.23;100.00
32747;BME280;19118;50.860;13.662;2022-10-19T02:02:45;98006.72;;;8.14;100.00
32747;BME280;19118;50.860;13.662;2022-10-19T02:07:55;98009.81;;;8.09;100.00
32747;BME280;19118;50.860;13.662;2022-10-19T02:12:57;98016.97;;;8.25;100.00
32747;BME280;19118;50.860;13.662;2022-10-19T02:17:58;98020.34;;;8.35;100.00
32747;BME280;19118;50.860;13.662;2022-10-19T02:23:05;98021.88;;;8.46;100.00
32747;BME280;19118;50.860;13.662;2022-10-19T02:28:05;98024.19;;;8.49;100.00
32747;BME280;19118;50.860;13.662;2022-10-19T02:33:06;98017.25;;;8.48;100.00
32747;BME280;19118;50.860;13.662;2022-10-19T02:38:09;98012.00;;;8.48;100.00
32747;BME280;19118;50.860;13.662;2022-10-19T02:43:13;98020.09;;;8.55;100.00
32747;BME280;19118;50.860;13.662;2022-10-19T02:48:20;98022.13;;;8.69;100.00
32747;BME280;19118;50.860;13.662;2022-10-19T02:53:21;98022.13;;;8.69;100.00
32747;BME280;19118;50.860;13.662;2022-10-19T02:58:22;98020.00;;;8.81;100.00
32747;BME280;19118;50.860;13.662;2022-10-19T03:03:22;98018.38;;;8.88;100.00
32747;BME280;19118;50.860;13.662;2022-10-19T03:08:22;98015.09;;;8.94;100.00
32747;BME280;19118;50.860;13.662;2022-10-19T03:13:23;98010.63;;;8.78;100.00
32747;BME280;19118;50.860;13.662;2022-10-19T03:18:23;98001.69;;;8.71;100.00
32747;BME280;19118;50.860;13.662;2022-10-19T03:23:23;97994.44;;;8.65;100.00
32747;BME280;19118;50.860;13.662;2022-10-19T03:28:24;97985.53;;;8.66;100.00
32747;BME280;19118;50.860;13.662;2022-10-19T03:33:24;97980.25;;;8.66;100.00
32747;BME280;19118;50.860;13.662;2022-10-19T03:38:25;97984.38;;;8.68;100.00
32747;BME280;19118;50.860;13.662;2022-10-19T03:43:25;97986.03;;;8.69;100.00
32747;BME280;19118;50.860;13.662;2022-10-19T03:48:26;97981.22;;;8.57;100.00
32747;BME280;19118;50.860;13.662;2022-10-19T03:53:27;97986.69;;;8.63;100.00
32747;BME280;19118;50.860;13.662;2022-10-19T03:58:28;97995.38;;;8.56;100.00
32747;BME280;19118;50.860;13.662;2022-10-19T04:03:28;97993.59;;;8.64;100.00
32747;BME280;19118;50.860;13.662;2022-10-19T04:08:28;98008.94;;;8.61;100.00
32747;BME280;19118;50.860;13.662;2022-10-19T04:13:29;98008.06;;;8.60;100.00
32747;BME280;19118;50.860;13.662;2022-10-19T04:18:30;98006.97;;;8.63;100.00
32747;BME280;19118;50.860;13.662;2022-10-19T04:23:33;98002.34;;;8.65;100.00
32747;BME280;19118;50.860;13.662;2022-10-19T04:28:34;98005.63;;;8.67;100.00
32747;BME280;19118;50.860;13.662;2022-10-19T04:33:34;97996.09;;;8.66;100.00
32747;BME280;19118;50.860;13.662;2022-10-19T04:38:35;97990.94;;;8.56;100.00
32747;BME280;19118;50.860;13.662;2022-10-19T04:43:36;97988.44;;;8.46;100.00
32747;BME280;19118;50.860;13.662;2022-10-19T04:48:38;97996.16;;;8.40;100.00
32747;BME280;19118;50.860;13.662;2022-10-19T04:53:40;97996.63;;;8.35;100.00
32747;BME280;19118;50.860;13.662;2022-10-19T04:58:41;98006.28;;;8.27;100.00
32747;BME280;19118;50.860;13.662;2022-10-19T05:03:42;97996.06;;;8.24;100.00
32747;BME280;19118;50.860;13.662;2022-10-19T05:08:42;98013.94;;;8.12;100.00
32747;BME280;19118;50.860;13.662;2022-10-19T05:13:44;98003.91;;;8.07;100.00
32747;BME280;19118;50.860;13.662;2022-10-19T05:19:02;98015.59;;;8.13;100.00
32747;BME280;19118;50.860;13.662;2022-10-19T05:24:03;98015.75;;;8.11;100.00
32747;BME280;19118;50.860;13.662;2022-10-19T05:29:03;98014.16;;;8.18;100.00
32747;BME280;19118;50.860;13.662;2022-10-19T05:34:04;98014.00;;;8.20;100.00
32747;BME280;19118;50.860;13.662;2022-10-19T05:39:08;98016.75;;;8.10;100.00
32747;BME280;19118;50.860;13.662;2022-10-19T05:44:17;98017.97;;;8.24;100.00
32747;BME280;19118;50.860;13.662;2022-10-19T05:49:20;98015.69;;;8.29;100.00
32747;BME280;19118;50.860;13.662;2022-10-19T05:54:20;98026.69;;;8.25;100.00
32747;BME280;19118;50.860;13.662;2022-10-19T05:59:22;98018.69;;;8.34;100.00
32747;BME280;19118;50.860;13.662;2022-10-19T06:04:22;98020.06;;;8.38;100.00
32747;BME280;19118;50.860;13.662;2022-10-19T06:09:23;98017.84;;;8.34;100.00
32747;BME280;19118;50.860;13.662;2022-10-19T06:14:23;98013.72;;;8.31;100.00
32747;BME280;19118;50.860;13.662;2022-10-19T06:19:24;98014.34;;;8.25;100.00
32747;BME280;19118;50.860;13.662;2022-10-19T06:24:24;98013.63;;;8.41;100.00
32747;BME280;19118;50.860;13.662;2022-10-19T06:29:24;98020.56;;;8.42;100.00
32747;BME280;19118;50.860;13.662;2022-10-19T06:34:25;98032.75;;;8.43;100.00
32747;BME280;19118;50.860;13.662;2022-10-19T06:39:25;98013.22;;;8.62;100.00
32747;BME280;19118;50.860;13.662;2022-10-19T06:44:25;98012.03;;;8.56;100.00
32747;BME280;19118;50.860;13.662;2022-10-19T06:49:26;98018.19;;;8.73;100.00
32747;BME280;19118;50.860;13.662;2022-10-19T06:54:27;98021.16;;;8.78;100.00
32747;BME280;19118;50.860;13.662;2022-10-19T06:59:27;98029.47;;;8.99;100.00
32747;BME280;19118;50.860;13.662;2022-10-19T07:04:28;98017.88;;;8.92;100.00
32747;BME280;19118;50.860;13.662;2022-10-19T07:09:28;98017.91;;;9.00;100.00
32747;BME280;19118;50.860;13.662;2022-10-19T07:14:28;98013.81;;;9.22;100.00
32747;BME280;19118;50.860;13.662;2022-10-19T07:19:29;98019.94;;;9.55;100.00
32747;BME280;19118;50.860;13.662;2022-10-19T07:24:31;98013.16;;;9.61;100.00
32747;BME280;19118;50.860;13.662;2022-10-19T07:29:31;98009.22;;;9.65;100.00
32747;BME280;19118;50.860;13.662;2022-10-19T07:34:32;98017.56;;;9.93;100.00
32747;BME280;19118;50.860;13.662;2022-10-19T07:39:32;98026.19;;;9.87;100.00
32747;BME280;19118;50.860;13.662;2022-10-19T07:44:32;98020.84;;;10.03;100.00
32747;BME280;19118;50.860;13.662;2022-10-19T07:49:33;98023.88;;;9.76;100.00
32747;BME280;19118;50.860;13.662;2022-10-19T07:54:33;98023.03;;;9.83;100.00
32747;BME280;19118;50.860;13.662;2022-10-19T07:59:34;98023.50;;;10.03;100.00
32747;BME280;19118;50.860;13.662;2022-10-19T08:04:34;98023.97;;;10.31;100.00
32747;BME280;19118;50.860;13.662;2022-10-19T08:09:35;98034.72;;;10.13;100.00
32747;BME280;19118;50.860;13.662;2022-10-19T08:14:36;98037.31;;;10.38;100.00
32747;BME280;19118;50.860;13.662;2022-10-19T08:19:36;98039.38;;;9.95;100.00
32747;BME280;19118;50.860;13.662;2022-10-19T08:24:42;98042.53;;;9.90;100.00
32747;BME280;19118;50.860;13.662;2022-10-19T08:29:42;98040.69;;;9.91;100.00
32747;BME280;19118;50.860;13.662;2022-10-19T08:34:43;98042.19;;;9.93;100.00
32747;BME280;19118;50.860;13.662;2022-10-19T08:39:43;98045.03;;;9.76;100.00
32747;BME280;19118;50.860;13.662;2022-10-19T08:45:21;98035.09;;;9.78;100.00
32747;BME280;19118;50.860;13.662;2022-10-19T08:50:35;98042.22;;;9.53;100.00
32747;BME280;19118;50.860;13.662;2022-10-19T09:01:05;98037.09;;;9.43;100.00
32747;BME280;19118;50.860;13.662;2022-10-19T09:06:14;98031.47;;;9.62;100.00
32747;BME280;19118;50.860;13.662;2022-10-19T09:11:23;98036.44;;;9.66;100.00
32747;BME280;19118;50.860;13.662;2022-10-19T09:16:25;98031.13;;;9.98;100.00
32747;BME280;19118;50.860;13.662;2022-10-19T09:21:40;98032.34;;;10.43;100.00
32747;BME280;19118;50.860;13.662;2022-10-19T09:26:51;98033.66;;;10.39;100.00
32747;BME280;19118;50.860;13.662;2022-10-19T09:31:54;98035.28;;;10.48;100.00
32747;BME280;19118;50.860;13.662;2022-10-19T09:36:57;98035.88;;;10.11;100.00
32747;BME280;19118;50.860;13.662;2022-10-19T09:42:06;98038.38;;;9.96;100.00
32747;BME280;19118;50.860;13.662;2022-10-19T09:47:47;98039.22;;;9.97;100.00
32747;BME280;19118;50.860;13.662;2022-10-19T09:52:41;98046.31;;;9.88;100.00
32747;BME280;19118;50.860;13.662;2022-10-19T09:57:42;98036.38;;;10.31;100.00
32747;BME280;19118;50.860;13.662;2022-10-19T10:02:48;98042.78;;;10.28;100.00
32747;BME280;19118;50.860;13.662;2022-10-19T10:07:53;98038.09;;;11.17;100.00
32747;BME280;19118;50.860;13.662;2022-10-19T10:12:54;98032.47;;;10.89;100.00
32747;BME280;19118;50.860;13.662;2022-10-19T10:17:55;98047.78;;;10.62;99.64
32747;BME280;19118;50.860;13.662;2022-10-19T10:23:03;98042.63;;;10.30;100.00
32747;BME280;19118;50.860;13.662;2022-10-19T10:28:18;98044.06;;;10.88;98.40
32747;BME280;19118;50.860;13.662;2022-10-19T10:33:23;98041.69;;;10.62;97.65
32747;BME280;19118;50.860;13.662;2022-10-19T10:38:27;98050.00;;;10.90;97.92
32747;BME280;19118;50.860;13.662;2022-10-19T10:43:33;98040.47;;;10.72;94.19
32747;BME280;19118;50.860;13.662;2022-10-19T10:53:40;98044.69;;;10.59;94.73
32747;BME280;19118;50.860;13.662;2022-10-19T10:59:03;98057.16;;;10.34;93.57
32747;BME280;19118;50.860;13.662;2022-10-19T11:04:11;98055.16;;;10.44;96.44
32747;BME280;19118;50.860;13.662;2022-10-19T11:09:24;98064.09;;;10.18;93.64
32747;BME280;19118;50.860;13.662;2022-10-19T11:30:11;98035.25;;;11.18;88.86
32747;BME280;19118;50.860;13.662;2022-10-19T11:40:37;98037.47;;;11.06;89.91
32747;BME280;19118;50.860;13.662;2022-10-19T11:56:25;98045.13;;;10.70;89.76
32747;BME280;19118;50.860;13.662;2022-10-19T12:07:14;98033.44;;;10.65;89.19
32747;BME280;19118;50.860;13.662;2022-10-19T12:12:25;98038.59;;;10.89;87.94
32747;BME280;19118;50.860;13.662;2022-10-19T12:17:30;98029.13;;;10.95;86.69
32747;BME280;19118;50.860;13.662;2022-10-19T12:22:33;98014.97;;;11.33;86.17
32747;BME280;19118;50.860;13.662;2022-10-19T12:27:37;98012.72;;;10.99;86.81
32747;BME280;19118;50.860;13.662;2022-10-19T12:38:09;98013.47;;;11.54;86.56
32747;BME280;19118;50.860;13.662;2022-10-19T12:48:16;98020.06;;;10.50;87.61
32747;BME280;19118;50.860;13.662;2022-10-19T12:53:25;98025.09;;;10.29;87.77
32747;BME280;19118;50.860;13.662;2022-10-19T12:58:29;98009.81;;;10.00;90.55
32747;BME280;19118;50.860;13.662;2022-10-19T13:03:39;98010.28;;;10.11;89.86
32747;BME280;19118;50.860;13.662;2022-10-19T13:08:41;98005.34;;;10.08;89.88
32747;BME280;19118;50.860;13.662;2022-10-19T13:24:28;98002.19;;;10.60;85.73
32747;BME280;19118;50.860;13.662;2022-10-19T13:34:39;97994.78;;;10.56;83.70
32747;BME280;19118;50.860;13.662;2022-10-19T13:39:40;97998.03;;;10.66;82.28
32747;BME280;19118;50.860;13.662;2022-10-19T13:44:43;97993.22;;;10.30;82.58
32747;BME280;19118;50.860;13.662;2022-10-19T14:00:23;97992.53;;;10.36;81.76
32747;BME280;19118;50.860;13.662;2022-10-19T14:10:47;97988.44;;;10.17;82.03
32747;BME280;19118;50.860;13.662;2022-10-19T14:15:53;97983.56;;;9.98;80.62
32747;BME280;19118;50.860;13.662;2022-10-19T14:21:04;97972.28;;;10.04;80.56
32747;BME280;19118;50.860;13.662;2022-10-19T14:26:15;97985.50;;;10.04;80.73
32747;BME280;19118;50.860;13.662;2022-10-19T14:31:19;97979.72;;;10.09;80.15
32747;BME280;19118;50.860;13.662;2022-10-19T14:36:22;97976.06;;;10.26;81.68
32747;BME280;19118;50.860;13.662;2022-10-19T14:46:32;97975.59;;;10.06;81.43
32747;BME280;19118;50.860;13.662;2022-10-19T14:51:43;97975.63;;;9.98;81.93
32747;BME280;19118;50.860;13.662;2022-10-19T15:01:51;97986.38;;;9.88;83.06
32747;BME280;19118;50.860;13.662;2022-10-19T15:06:53;97978.94;;;9.92;81.75
32747;BME280;19118;50.860;13.662;2022-10-19T15:11:57;97974.34;;;9.86;82.53
32747;BME280;19118;50.860;13.662;2022-10-19T15:17:01;97961.06;;;10.02;83.79
32747;BME280;19118;50.860;13.662;2022-10-19T15:27:10;97966.44;;;9.78;83.45
32747;BME280;19118;50.860;13.662;2022-10-19T15:32:22;97966.13;;;9.56;84.47
32747;BME280;19118;50.860;13.662;2022-10-19T15:37:23;97980.00;;;9.34;86.61
32747;BME280;19118;50.860;13.662;2022-10-19T15:42:36;97969.44;;;9.34;85.06
32747;BME280;19118;50.860;13.662;2022-10-19T15:47:38;97963.00;;;9.45;86.03
32747;BME280;19118;50.860;13.662;2022-10-19T15:52:59;97961.69;;;9.32;84.05
32747;BME280;19118;50.860;13.662;2022-10-19T15:57:59;97953.28;;;9.21;88.68
32747;BME280;19118;50.860;13.662;2022-10-19T16:02:59;97954.59;;;9.00;90.89
32747;BME280;19118;50.860;13.662;2022-10-19T16:08:00;97952.25;;;8.65;93.71
32747;BME280;19118;50.860;13.662;2022-10-19T16:13:00;97954.81;;;8.40;95.84
32747;BME280;19118;50.860;13.662;2022-10-19T16:18:01;97951.78;;;8.27;96.94
32747;BME280;19118;50.860;13.662;2022-10-19T16:23:01;97955.94;;;7.96;99.78
32747;BME280;19118;50.860;13.662;2022-10-19T16:28:01;97958.56;;;7.70;100.00
32747;BME280;19118;50.860;13.662;2022-10-19T16:33:02;97958.81;;;7.58;100.00
32747;BME280;19118;50.860;13.662;2022-10-19T16:38:02;97960.88;;;7.47;100.00
32747;BME280;19118;50.860;13.662;2022-10-19T16:43:03;97952.56;;;7.34;100.00
32747;BME280;19118;50.860;13.662;2022-10-19T16:48:04;97949.41;;;7.04;100.00
32747;BME280;19118;50.860;13.662;2022-10-19T16:53:08;97965.03;;;6.70;100.00
32747;BME280;19118;50.860;13.662;2022-10-19T16:58:09;97958.91;;;6.52;100.00
32747;BME280;19118;50.860;13.662;2022-10-19T17:03:09;97962.09;;;6.28;100.00
32747;BME280;19118;50.860;13.662;2022-10-19T17:08:10;97972.13;;;6.15;100.00
32747;BME280;19118;50.860;13.662;2022-10-19T17:13:10;97971.75;;;6.00;100.00
32747;BME280;19118;50.860;13.662;2022-10-19T17:18:11;97987.28;;;5.93;100.00
32747;BME280;19118;50.860;13.662;2022-10-19T17:23:11;97977.78;;;5.73;100.00
32747;BME280;19118;50.860;13.662;2022-10-19T17:28:11;97982.81;;;5.47;100.00
32747;BME280;19118;50.860;13.662;2022-10-19T17:33:12;97979.09;;;5.20;100.00
32747;BME280;19118;50.860;13.662;2022-10-19T17:38:12;97995.25;;;4.96;100.00
32747;BME280;19118;50.860;13.662;2022-10-19T17:43:13;98003.69;;;4.90;100.00
32747;BME280;19118;50.860;13.662;2022-10-19T17:48:13;97999.09;;;4.54;100.00
32747;BME280;19118;50.860;13.662;2022-10-19T17:53:14;98001.38;;;4.37;100.00
32747;BME280;19118;50.860;13.662;2022-10-19T17:58:14;98006.66;;;4.07;100.00
32747;BME280;19118;50.860;13.662;2022-10-19T18:03:14;98003.28;;;3.86;100.00
32747;BME280;19118;50.860;13.662;2022-10-19T18:08:15;98010.06;;;3.67;100.00
32747;BME280;19118;50.860;13.662;2022-10-19T18:13:15;98004.72;;;3.48;100.00
32747;BME280;19118;50.860;13.662;2022-10-19T18:18:16;98006.81;;;3.33;100.00
32747;BME280;19118;50.860;13.662;2022-10-19T18:23:17;98008.03;;;3.29;100.00
32747;BME280;19118;50.860;13.662;2022-10-19T18:28:18;98010.44;;;3.21;100.00
32747;BME280;19118;50.860;13.662;2022-10-19T18:33:18;98003.69;;;3.18;100.00
32747;BME280;19118;50.860;13.662;2022-10-19T18:38:19;98013.56;;;3.15;100.00
32747;BME280;19118;50.860;13.662;2022-10-19T18:43:19;98010.63;;;3.08;100.00
32747;BME280;19118;50.860;13.662;2022-10-19T18:48:20;98001.13;;;3.07;100.00
32747;BME280;19118;50.860;13.662;2022-10-19T18:53:21;97994.00;;;3.09;100.00
32747;BME280;19118;50.860;13.662;2022-10-19T18:58:22;97989.72;;;3.08;100.00
32747;BME280;19118;50.860;13.662;2022-10-19T19:03:22;97986.84;;;3.11;100.00
32747;BME280;19118;50.860;13.662;2022-10-19T19:08:24;97992.84;;;3.02;100.00
32747;BME280;19118;50.860;13.662;2022-10-19T19:13:24;97996.66;;;2.98;100.00
32747;BME280;19118;50.860;13.662;2022-10-19T19:18:26;97985.69;;;3.04;100.00
32747;BME280;19118;50.860;13.662;2022-10-19T19:23:26;97982.91;;;2.96;100.00
32747;BME280;19118;50.860;13.662;2022-10-19T19:28:27;97983.91;;;2.84;100.00
32747;BME280;19118;50.860;13.662;2022-10-19T19:33:27;97986.03;;;2.79;100.00
32747;BME280;19118;50.860;13.662;2022-10-19T19:38:29;97985.25;;;2.67;100.00
32747;BME280;19118;50.860;13.662;2022-10-19T19:43:31;97982.53;;;2.57;100.00
32747;BME280;19118;50.860;13.662;2022-10-19T19:48:32;97984.84;;;2.51;100.00
32747;BME280;19118;50.860;13.662;2022-10-19T19:53:32;97984.84;;;2.51;100.00
32747;BME280;19118;50.860;13.662;2022-10-19T19:58:32;97984.47;;;2.44;100.00
32747;BME280;19118;50.860;13.662;2022-10-19T20:03:33;97993.75;;;2.37;100.00
32747;BME280;19118;50.860;13.662;2022-10-19T20:08:33;97992.34;;;2.33;100.00
32747;BME280;19118;50.860;13.662;2022-10-19T20:13:35;97999.34;;;2.21;100.00
32747;BME280;19118;50.860;13.662;2022-10-19T20:18:36;98010.50;;;2.23;100.00
32747;BME280;19118;50.860;13.662;2022-10-19T20:23:36;98003.28;;;2.16;100.00
32747;BME280;19118;50.860;13.662;2022-10-19T20:28:37;98014.19;;;2.10;100.00
32747;BME280;19118;50.860;13.662;2022-10-19T20:33:40;98009.22;;;2.07;100.00
32747;BME280;19118;50.860;13.662;2022-10-19T20:38:45;98008.72;;;2.01;100.00
32747;BME280;19118;50.860;13.662;2022-10-19T20:43:46;98007.78;;;2.02;100.00
32747;BME280;19118;50.860;13.662;2022-10-19T20:48:47;98004.22;;;2.15;100.00
32747;BME280;19118;50.860;13.662;2022-10-19T20:53:49;98007.78;;;2.02;100.00
32747;BME280;19118;50.860;13.662;2022-10-19T20:58:54;98008.03;;;1.99;100.00
32747;BME280;19118;50.860;13.662;2022-10-19T21:03:57;98003.41;;;1.92;100.00
32747;BME280;19118;50.860;13.662;2022-10-19T21:08:58;98009.56;;;1.91;100.00
32747;BME280;19118;50.860;13.662;2022-10-19T21:14:01;98010.06;;;1.96;100.00
32747;BME280;19118;50.860;13.662;2022-10-19T21:19:14;98007.31;;;1.86;100.00
32747;BME280;19118;50.860;13.662;2022-10-19T21:24:24;98009.69;;;1.89;100.00
32747;BME280;19118;50.860;13.662;2022-10-19T21:29:25;97997.72;;;1.87;100.00
32747;BME280;19118;50.860;13.662;2022-10-19T21:34:28;97994.75;;;1.91;100.00
32747;BME280;19118;50.860;13.662;2022-10-19T21:39:28;97983.59;;;1.89;100.00
32747;BME280;19118;50.860;13.662;2022-10-19T21:44:29;97974.94;;;1.89;100.00
32747;BME280;19118;50.860;13.662;2022-10-19T21:49:29;97977.69;;;1.87;100.00
32747;BME280;19118;50.860;13.662;2022-10-19T21:54:30;97976.28;;;1.83;100.00
32747;BME280;19118;50.860;13.662;2022-10-19T21:59:30;97968.44;;;1.83;100.00
32747;BME280;19118;50.860;13.662;2022-10-19T22:04:30;97971.28;;;1.80;100.00
32747;BME280;19118;50.860;13.662;2022-10-19T22:09:31;97965.84;;;1.83;100.00
32747;BME280;19118;50.860;13.662;2022-10-19T22:14:31;97971.25;;;2.02;100.00
32747;BME280;19118;50.860;13.662;2022-10-19T22:19:31;97965.09;;;1.92;100.00
32747;BME280;19118;50.860;13.662;2022-10-19T22:24:32;97953.63;;;1.95;100.00
32747;BME280;19118;50.860;13.662;2022-10-19T22:29:33;97944.22;;;1.92;100.00
32747;BME280;19118;50.860;13.662;2022-10-19T22:34:34;97934.03;;;2.12;100.00
32747;BME280;19118;50.860;13.662;2022-10-19T22:39:34;97927.63;;;2.16;100.00
32747;BME280;19118;50.860;13.662;2022-10-19T22:44:34;97923.13;;;2.18;100.00
32747;BME280;19118;50.860;13.662;2022-10-19T22:49:35;97930.47;;;2.13;100.00
32747;BME280;19118;50.860;13.662;2022-10-19T22:54:35;97921.81;;;2.12;100.00
32747;BME280;19118;50.860;13.662;2022-10-19T22:59:36;97926.44;;;2.09;100.00
32747;BME280;19118;50.860;13.662;2022-10-19T23:04:37;97925.03;;;2.04;100.00
32747;BME280;19118;50.860;13.662;2022-10-19T23:09:37;97928.09;;;2.10;100.00
32747;BME280;19118;50.860;13.662;2022-10-19T23:14:38;97920.53;;;2.07;100.00
32747;BME280;19118;50.860;13.662;2022-10-19T23:19:38;97923.84;;;1.97;100.00
32747;BME280;19118;50.860;13.662;2022-10-19T23:24:38;97923.38;;;1.92;100.00
32747;BME280;19118;50.860;13.662;2022-10-19T23:29:39;97929.34;;;1.83;100.00
32747;BME280;19118;50.860;13.662;2022-10-19T23:34:39;97919.25;;;1.79;100.00
32747;BME280;19118;50.860;13.662;2022-10-19T23:39:39;97918.78;;;1.85;100.00
32747;BME280;19118;50.860;13.662;2022-10-19T23:44:40;97910.38;;;1.70;100.00
32747;BME280;19118;50.860;13.662;2022-10-19T23:49:40;97920.56;;;1.62;100.00
32747;BME280;19118;50.860;13.662;2022-10-19T23:54:41;97903.97;;;1.63;100.00
32747;BME280;19118;50.860;13.662;2022-10-19T23:59:41;97900.88;;;1.58;100.00
